Station Historical Data
Daily Summary for March 14, 2017 Units:  English    Metric   Both
Next Day »
Daily Weekly Monthly Yearly Custom
  High: Low: Average:
Temperature: 74.9 °F 52.2 °F 61.1 °F
Dew Point: 48.7 °F 35.0 °F 41.2 °F
Humidity: 66% 30% 49%
Wind Speed: 16.0mph 0.0mph 3.2mph
Wind Gust: 19.0mph - -
Wind- - SE
Pressure: 30.13 in 30.08 in -
Precipitation: 0.00 in    
Historical Graphs
 
 
Tabular Data for March 14, 2017
Time Temperature Dew Point Pressure Wind Wind Speed Wind Gust Humidity Rainfall Rate (Hourly) solar Conditions
00:02 56.5 °F 41.5 °F 30.10 in ESE 4.0 mph 9.0 mph 57% 0.00 in 0.00 W/m2
00:07 56.4 °F 40.9 °F 30.10 in ESE 1.0 mph 11.0 mph 56% 0.00 in 0.00 W/m2
00:12 56.3 °F 41.3 °F 30.10 in Calm   8.0 mph 57% 0.00 in 0.00 W/m2
00:17 56.2 °F 40.7 °F 30.10 in ESE 7.0 mph 11.0 mph 56% 0.00 in 0.00 W/m2
00:22 56.1 °F 40.6 °F 30.10 in ESE 7.0 mph 12.0 mph 56% 0.00 in 0.00 W/m2
00:27 55.9 °F 40.0 °F 30.10 in ESE 9.0 mph 9.0 mph 55% 0.00 in 0.00 W/m2
00:32 55.8 °F 39.9 °F 30.10 in Calm   13.0 mph 55% 0.00 in 0.00 W/m2
00:37 55.7 °F 40.3 °F 30.10 in ESE 1.0 mph 12.0 mph 56% 0.00 in 0.00 W/m2
00:42 55.7 °F 40.7 °F 30.10 in East 1.0 mph 9.0 mph 57% 0.00 in 0.00 W/m2
00:43 55.6 °F 40.6 °F 30.10 in East 8.0 mph 9.0 mph 57% 0.00 in 0.00 W/m2
00:48 55.5 °F 40.1 °F 30.10 in East 1.0 mph 9.0 mph 56% 0.00 in 0.00 W/m2
00:53 55.4 °F 39.5 °F 30.10 in ESE 7.0 mph 14.0 mph 55% 0.00 in 0.00 W/m2
00:58 55.3 °F 39.9 °F 30.10 in ESE 13.0 mph 13.0 mph 56% 0.00 in 0.00 W/m2
01:03 55.2 °F 39.8 °F 30.10 in ESE 8.0 mph 12.0 mph 56% 0.00 in 0.00 W/m2
01:08 55.1 °F 39.2 °F 30.10 in ESE 7.0 mph 12.0 mph 55% 0.00 in 0.00 W/m2
01:13 55.1 °F 39.7 °F 30.10 in East 12.0 mph 15.0 mph 56% 0.00 in 0.00 W/m2
01:18 55.0 °F 39.6 °F 30.10 in East 9.0 mph 12.0 mph 56% 0.00 in 0.00 W/m2
01:23 55.0 °F 39.6 °F 30.10 in ESE 9.0 mph 14.0 mph 56% 0.00 in 0.00 W/m2
01:28 54.9 °F 39.0 °F 30.10 in Calm   11.0 mph 55% 0.00 in 0.00 W/m2
01:33 54.9 °F 39.5 °F 30.10 in Calm   13.0 mph 56% 0.00 in 0.00 W/m2
01:38 54.8 °F 39.0 °F 30.10 in Calm   13.0 mph 55% 0.00 in 0.00 W/m2
01:43 54.8 °F 39.0 °F 30.10 in ESE 7.0 mph 12.0 mph 55% 0.00 in 0.00 W/m2
01:48 54.8 °F 39.0 °F 30.10 in Calm   11.0 mph 55% 0.00 in 0.00 W/m2
01:53 54.7 °F 38.4 °F 30.11 in Calm   13.0 mph 54% 0.00 in 0.00 W/m2
01:58 54.6 °F 39.2 °F 30.11 in ESE 12.0 mph 14.0 mph 56% 0.00 in 0.00 W/m2
02:03 54.5 °F 38.7 °F 30.11 in ESE 4.0 mph 13.0 mph 55% 0.00 in 0.00 W/m2
02:08 54.4 °F 38.6 °F 30.11 in ESE 12.0 mph 14.0 mph 55% 0.00 in 0.00 W/m2
02:13 54.3 °F 38.0 °F 30.11 in East 8.0 mph 15.0 mph 54% 0.00 in 0.00 W/m2
02:18 54.3 °F 38.5 °F 30.11 in East 5.0 mph 12.0 mph 55% 0.00 in 0.00 W/m2
02:23 54.2 °F 38.4 °F 30.11 in East 1.0 mph 16.0 mph 55% 0.00 in 0.00 W/m2
02:28 54.2 °F 38.9 °F 30.11 in East 6.0 mph 14.0 mph 56% 0.00 in 0.00 W/m2
02:33 54.1 °F 37.8 °F 30.11 in Calm   13.0 mph 54% 0.00 in 0.00 W/m2
02:38 54.1 °F 37.8 °F 30.11 in East 5.0 mph 15.0 mph 54% 0.00 in 0.00 W/m2
02:43 54.0 °F 37.8 °F 30.11 in ESE 1.0 mph 14.0 mph 54% 0.00 in 0.00 W/m2
02:48 54.0 °F 38.2 °F 30.11 in ESE 9.0 mph 12.0 mph 55% 0.00 in 0.00 W/m2
02:53 53.9 °F 38.1 °F 30.11 in ESE 9.0 mph 15.0 mph 55% 0.00 in 0.00 W/m2
02:58 53.9 °F 37.7 °F 30.11 in ESE 6.0 mph 16.0 mph 54% 0.00 in 0.00 W/m2
03:03 53.9 °F 37.2 °F 30.11 in East 11.0 mph 14.0 mph 53% 0.00 in 0.00 W/m2
03:08 53.9 °F 37.7 °F 30.11 in Calm   16.0 mph 54% 0.00 in 0.00 W/m2
03:13 53.9 °F 37.2 °F 30.11 in East 12.0 mph 14.0 mph 53% 0.00 in 0.00 W/m2
03:18 53.8 °F 37.1 °F 30.11 in ESE 5.0 mph 13.0 mph 53% 0.00 in 0.00 W/m2
03:23 53.8 °F 37.6 °F 30.11 in ESE 4.0 mph 14.0 mph 54% 0.00 in 0.00 W/m2
03:28 53.7 °F 37.0 °F 30.10 in ESE 4.0 mph 14.0 mph 53% 0.00 in 0.00 W/m2
03:33 53.7 °F 37.5 °F 30.10 in ESE 13.0 mph 15.0 mph 54% 0.00 in 0.00 W/m2
03:38 53.6 °F 36.9 °F 30.10 in ESE 13.0 mph 15.0 mph 53% 0.00 in 0.00 W/m2
03:43 53.5 °F 37.3 °F 30.10 in East 11.0 mph 16.0 mph 54% 0.00 in 0.00 W/m2
03:48 53.5 °F 36.3 °F 30.10 in East 6.0 mph 14.0 mph 52% 0.00 in 0.00 W/m2
03:53 53.4 °F 36.7 °F 30.10 in ESE 8.0 mph 18.0 mph 53% 0.00 in 0.00 W/m2
03:58 53.4 °F 36.7 °F 30.09 in East 8.0 mph 15.0 mph 53% 0.00 in 0.00 W/m2
04:03 53.3 °F 36.1 °F 30.09 in East 4.0 mph 16.0 mph 52% 0.00 in 0.00 W/m2
04:08 53.3 °F 36.1 °F 30.09 in ESE 11.0 mph 19.0 mph 52% 0.00 in 0.00 W/m2
04:14 53.3 °F 36.1 °F 30.09 in East 11.0 mph 16.0 mph 52% 0.00 in 0.00 W/m2
04:19 53.3 °F 35.7 °F 30.09 in East 16.0 mph 19.0 mph 51% 0.00 in 0.00 W/m2
04:24 53.3 °F 36.1 °F 30.09 in East 7.0 mph 16.0 mph 52% 0.00 in 0.00 W/m2
04:29 53.3 °F 36.1 °F 30.09 in ESE 13.0 mph 16.0 mph 52% 0.00 in 0.00 W/m2
04:34 53.3 °F 36.1 °F 30.09 in ESE 6.0 mph 19.0 mph 52% 0.00 in 0.00 W/m2
04:39 53.3 °F 35.2 °F 30.09 in ESE 9.0 mph 14.0 mph 50% 0.00 in 0.00 W/m2
04:44 53.3 °F 35.2 °F 30.09 in ESE 6.0 mph 15.0 mph 50% 0.00 in 0.00 W/m2
04:49 53.3 °F 36.1 °F 30.09 in East 11.0 mph 15.0 mph 52% 0.00 in 0.00 W/m2
04:54 53.2 °F 35.6 °F 30.09 in ESE 1.0 mph 15.0 mph 51% 0.00 in 0.00 W/m2
04:59 53.2 °F 35.1 °F 30.09 in East 8.0 mph 15.0 mph 50% 0.00 in 0.00 W/m2
05:04 53.1 °F 36.0 °F 30.09 in Calm   16.0 mph 52% 0.00 in 0.00 W/m2
05:09 53.1 °F 35.5 °F 30.09 in ESE 9.0 mph 14.0 mph 51% 0.00 in 0.00 W/m2
05:14 53.1 °F 35.5 °F 30.09 in East 11.0 mph 14.0 mph 51% 0.00 in 0.00 W/m2
05:19 53.1 °F 35.0 °F 30.09 in East 11.0 mph 16.0 mph 50% 0.00 in 0.00 W/m2
05:24 53.1 °F 36.0 °F 30.09 in Calm   12.0 mph 52% 0.00 in 0.00 W/m2
05:29 53.1 °F 35.5 °F 30.10 in Calm   14.0 mph 51% 0.00 in 0.00 W/m2
05:34 53.0 °F 35.4 °F 30.10 in East 6.0 mph 14.0 mph 51% 0.00 in 0.00 W/m2
05:39 53.0 °F 35.9 °F 30.10 in Calm   11.0 mph 52% 0.00 in 0.00 W/m2
05:44 52.9 °F 35.3 °F 30.10 in ESE 1.0 mph 4.0 mph 51% 0.00 in 0.00 W/m2
05:49 52.9 °F 36.2 °F 30.10 in Calm   12.0 mph 53% 0.00 in 0.00 W/m2
05:54 52.8 °F 36.2 °F 30.10 in Calm   1.0 mph 53% 0.00 in 0.00 W/m2
05:59 52.8 °F 36.2 °F 30.10 in Calm   1.0 mph 53% 0.00 in 0.00 W/m2
06:04 52.6 °F 36.0 °F 30.10 in East 1.0 mph 1.0 mph 53% 0.00 in 0.00 W/m2
06:09 52.5 °F 35.9 °F 30.10 in Calm   2.0 mph 53% 0.00 in 0.00 W/m2
06:14 52.4 °F 36.3 °F 30.10 in Calm   1.0 mph 54% 0.00 in 0.00 W/m2
06:19 52.4 °F 37.2 °F 30.10 in Calm   1.0 mph 56% 0.00 in 0.00 W/m2
06:24 52.3 °F 37.5 °F 30.10 in Calm   2.0 mph 57% 0.00 in 0.00 W/m2
06:29 52.3 °F 37.1 °F 30.10 in Calm   2.0 mph 56% 0.00 in 0.00 W/m2
06:34 52.3 °F 37.1 °F 30.10 in East 1.0 mph 2.0 mph 56% 0.00 in 0.00 W/m2
06:39 52.2 °F 37.0 °F 30.10 in East 1.0 mph 2.0 mph 56% 0.00 in 0.00 W/m2
06:44 52.2 °F 37.4 °F 30.10 in Calm   4.0 mph 57% 0.00 in 0.00 W/m2
06:49 52.2 °F 37.4 °F 30.10 in Calm   4.0 mph 57% 0.00 in 0.00 W/m2
06:54 52.2 °F 36.5 °F 30.10 in ESE 1.0 mph 5.0 mph 55% 0.00 in 0.00 W/m2
06:59 52.2 °F 36.5 °F 30.10 in Calm   5.0 mph 55% 0.00 in 0.00 W/m2
07:04 52.3 °F 37.1 °F 30.10 in East 1.0 mph 14.0 mph 56% 0.00 in 0.00 W/m2
07:09 52.3 °F 36.6 °F 30.10 in Calm   4.0 mph 55% 0.00 in 0.00 W/m2
07:14 52.3 °F 36.2 °F 30.10 in East 1.0 mph 14.0 mph 54% 0.00 in 5.00 W/m2
07:19 52.3 °F 36.6 °F 30.11 in East 1.0 mph 12.0 mph 55% 0.00 in 7.00 W/m2
07:24 52.4 °F 36.7 °F 30.11 in East 2.0 mph 11.0 mph 55% 0.00 in 11.00 W/m2
07:29 52.4 °F 36.7 °F 30.11 in East 1.0 mph 14.0 mph 55% 0.00 in 14.00 W/m2
07:34 52.4 °F 36.7 °F 30.11 in East 1.0 mph 7.0 mph 55% 0.00 in 16.00 W/m2
07:39 52.4 °F 37.2 °F 30.11 in Calm   2.0 mph 56% 0.00 in 21.00 W/m2
07:44 52.4 °F 37.2 °F 30.11 in Calm   11.0 mph 56% 0.00 in 30.00 W/m2
07:49 52.3 °F 37.1 °F 30.11 in Calm   7.0 mph 56% 0.00 in 40.00 W/m2
07:54 52.3 °F 37.5 °F 30.11 in East 1.0 mph 8.0 mph 57% 0.00 in 51.00 W/m2
07:59 52.3 °F 37.5 °F 30.11 in ESE 4.0 mph 9.0 mph 57% 0.00 in 69.00 W/m2
08:04 52.3 °F 37.5 °F 30.11 in East 1.0 mph 11.0 mph 57% 0.00 in 90.00 W/m2
08:09 52.3 °F 38.0 °F 30.11 in ESE 2.0 mph 15.0 mph 58% 0.00 in 105.00 W/m2
08:14 52.4 °F 38.1 °F 30.11 in ESE 9.0 mph 19.0 mph 58% 0.00 in 135.00 W/m2
08:19 52.5 °F 37.7 °F 30.11 in ESE 4.0 mph 16.0 mph 57% 0.00 in 146.00 W/m2
08:24 52.6 °F 38.3 °F 30.11 in ESE 1.0 mph 16.0 mph 58% 0.00 in 178.00 W/m2
08:29 52.7 °F 37.5 °F 30.11 in SE 2.0 mph 12.0 mph 56% 0.00 in 192.00 W/m2
08:34 52.9 °F 37.7 °F 30.11 in East 2.0 mph 15.0 mph 56% 0.00 in 225.00 W/m2
08:39 53.0 °F 38.6 °F 30.11 in East 3.0 mph 12.0 mph 58% 0.00 in 234.00 W/m2
08:44 53.2 °F 38.8 °F 30.11 in ESE 8.0 mph 15.0 mph 58% 0.00 in 265.00 W/m2
08:49 53.4 °F 39.5 °F 30.11 in ESE 16.0 mph 19.0 mph 59% 0.00 in 290.00 W/m2
08:55 53.6 °F 39.2 °F 30.11 in East 4.0 mph 18.0 mph 58% 0.00 in 311.00 W/m2
09:00 53.9 °F 39.0 °F 30.11 in Calm   18.0 mph 57% 0.00 in 334.00 W/m2
09:05 54.2 °F 39.3 °F 30.12 in East 4.0 mph 14.0 mph 57% 0.00 in 352.00 W/m2
09:10 54.5 °F 39.6 °F 30.12 in East 5.0 mph 16.0 mph 57% 0.00 in 373.00 W/m2
09:15 54.8 °F 39.0 °F 30.12 in SE 1.0 mph 13.0 mph 55% 0.00 in 392.00 W/m2
09:20 55.2 °F 39.8 °F 30.11 in Calm   15.0 mph 56% 0.00 in 406.00 W/m2
09:25 55.5 °F 39.6 °F 30.11 in ESE 2.0 mph 14.0 mph 55% 0.00 in 425.00 W/m2
09:30 55.9 °F 40.0 °F 30.11 in Calm   9.0 mph 55% 0.00 in 399.00 W/m2
09:35 56.3 °F 40.4 °F 30.11 in Calm   14.0 mph 55% 0.00 in 462.00 W/m2
09:36 56.4 °F 40.5 °F 30.11 in ESE 12.0 mph 14.0 mph 55% 0.00 in 455.00 W/m2
09:41 56.8 °F 39.9 °F 30.11 in East 1.0 mph 14.0 mph 53% 0.00 in 482.00 W/m2
09:46 57.2 °F 39.2 °F 30.12 in East 14.0 mph 19.0 mph 51% 0.00 in 501.00 W/m2
09:51 57.7 °F 39.2 °F 30.12 in East 3.0 mph 13.0 mph 50% 0.00 in 519.00 W/m2
09:56 58.1 °F 39.1 °F 30.12 in East 1.0 mph 11.0 mph 49% 0.00 in 536.00 W/m2
10:01 58.7 °F 39.6 °F 30.12 in East 2.0 mph 12.0 mph 49% 0.00 in 534.00 W/m2
10:06 59.4 °F 38.6 °F 30.12 in SE 1.0 mph 8.0 mph 46% 0.00 in 519.00 W/m2
10:11 60.0 °F 39.7 °F 30.12 in SE 1.0 mph 7.0 mph 47% 0.00 in 515.00 W/m2
10:16 60.4 °F 39.0 °F 30.12 in Calm   7.0 mph 45% 0.00 in 570.00 W/m2
10:21 61.0 °F 39.0 °F 30.12 in ESE 1.0 mph 6.0 mph 44% 0.00 in 566.00 W/m2
10:26 61.5 °F 40.0 °F 30.12 in ESE 1.0 mph 4.0 mph 45% 0.00 in 578.00 W/m2
10:31 61.9 °F 38.0 °F 30.12 in Calm   2.0 mph 41% 0.00 in 580.00 W/m2
10:36 62.3 °F 40.7 °F 30.12 in Calm   4.0 mph 45% 0.00 in 619.00 W/m2
10:41 62.9 °F 40.7 °F 30.12 in Calm   5.0 mph 44% 0.00 in 642.00 W/m2
10:46 63.4 °F 39.3 °F 30.12 in ESE 1.0 mph 4.0 mph 41% 0.00 in 633.00 W/m2
10:51 63.9 °F 41.6 °F 30.12 in Calm   2.0 mph 44% 0.00 in 708.00 W/m2
10:56 64.2 °F 40.0 °F 30.12 in Calm     41% 0.00 in 670.00 W/m2
11:01 64.5 °F 40.3 °F 30.12 in SE 4.0 mph 4.0 mph 41% 0.00 in 566.00 W/m2
11:06 64.9 °F 40.0 °F 30.13 in South 1.0 mph 7.0 mph 40% 0.00 in 359.00 W/m2
11:11 65.2 °F 38.3 °F 30.13 in South 2.0 mph 2.0 mph 37% 0.00 in 417.00 W/m2
11:16 65.4 °F 37.8 °F 30.13 in South 1.0 mph 1.0 mph 36% 0.00 in 596.00 W/m2
11:21 65.7 °F 40.1 °F 30.13 in South 5.0 mph 7.0 mph 39% 0.00 in 680.00 W/m2
11:26 66.0 °F 41.7 °F 30.13 in Calm     41% 0.00 in 652.00 W/m2
11:31 66.3 °F 40.0 °F 30.13 in South 1.0 mph 1.0 mph 38% 0.00 in 675.00 W/m2
11:36 66.7 °F 41.0 °F 30.13 in Calm   2.0 mph 39% 0.00 in 708.00 W/m2
11:41 67.1 °F 38.6 °F 30.13 in SSE 1.0 mph 5.0 mph 35% 0.00 in 728.00 W/m2
11:46 67.5 °F 40.3 °F 30.13 in Calm     37% 0.00 in 749.00 W/m2
11:51 68.0 °F 42.8 °F 30.12 in Calm     40% 0.00 in 772.00 W/m2
11:56 68.3 °F 43.1 °F 30.12 in SSE 1.0 mph 9.0 mph 40% 0.00 in 795.00 W/m2
12:01 68.8 °F 42.2 °F 30.12 in Calm   1.0 mph 38% 0.00 in 784.00 W/m2
12:06 69.2 °F 43.2 °F 30.12 in Calm   5.0 mph 39% 0.00 in 675.00 W/m2
12:11 69.4 °F 43.4 °F 30.12 in SSW 6.0 mph 6.0 mph 39% 0.00 in 751.00 W/m2
12:16 69.7 °F 43.7 °F 30.12 in SSW 5.0 mph 7.0 mph 39% 0.00 in 710.00 W/m2
12:21 70.0 °F 41.8 °F 30.12 in SSW 8.0 mph 8.0 mph 36% 0.00 in 701.00 W/m2
12:26 70.3 °F 42.8 °F 30.12 in Calm   1.0 mph 37% 0.00 in 707.00 W/m2
12:31 70.5 °F 41.6 °F 30.12 in SW 4.0 mph 9.0 mph 35% 0.00 in 747.00 W/m2
12:32 70.5 °F 41.6 °F 30.12 in SW 6.0 mph 9.0 mph 35% 0.00 in 772.00 W/m2
12:37 70.7 °F 41.7 °F 30.12 in Calm   3.0 mph 35% 0.00 in 849.00 W/m2
12:42 70.8 °F 43.3 °F 30.12 in South 6.0 mph 10.0 mph 37% 0.00 in 847.00 W/m2
12:47 71.0 °F 43.4 °F 30.12 in SW 4.0 mph 8.0 mph 37% 0.00 in 812.00 W/m2
12:52 71.0 °F 44.1 °F 30.12 in SSW 7.0 mph 11.0 mph 38% 0.00 in 828.00 W/m2
12:57 71.1 °F 43.5 °F 30.11 in SW 5.0 mph 8.0 mph 37% 0.00 in 847.00 W/m2
13:02 71.2 °F 44.3 °F 30.11 in SW 9.0 mph 12.0 mph 38% 0.00 in 838.00 W/m2
13:07 71.3 °F 45.1 °F 30.11 in SW 1.0 mph 3.0 mph 39% 0.00 in 837.00 W/m2
13:12 71.6 °F 46.0 °F 30.11 in SSE 9.0 mph 9.0 mph 40% 0.00 in 810.00 W/m2
13:17 71.8 °F 45.5 °F 30.11 in South 2.0 mph 3.0 mph 39% 0.00 in 800.00 W/m2
13:22 72.1 °F 45.1 °F 30.11 in SW 10.0 mph 13.0 mph 38% 0.00 in 705.00 W/m2
13:27 72.3 °F 44.6 °F 30.11 in SSW 1.0 mph 9.0 mph 37% 0.00 in 689.00 W/m2
13:33 72.6 °F 45.6 °F 30.10 in South 10.0 mph 12.0 mph 38% 0.00 in 786.00 W/m2
13:38 72.8 °F 45.0 °F 30.10 in SW 1.0 mph 10.0 mph 37% 0.00 in 830.00 W/m2
13:43 73.0 °F 44.5 °F 30.10 in SSE 2.0 mph 8.0 mph 36% 0.00 in 838.00 W/m2
13:48 73.2 °F 44.7 °F 30.10 in SW 4.0 mph 9.0 mph 36% 0.00 in 833.00 W/m2
13:53 73.4 °F 45.6 °F 30.10 in South 7.0 mph 8.0 mph 37% 0.00 in 828.00 W/m2
13:58 73.6 °F 45.0 °F 30.10 in South 1.0 mph 7.0 mph 36% 0.00 in 823.00 W/m2
14:03 73.8 °F 44.5 °F 30.10 in SSE 1.0 mph 14.0 mph 35% 0.00 in 823.00 W/m2
14:08 74.0 °F 42.3 °F 30.10 in SSW 7.0 mph 15.0 mph 32% 0.00 in 809.00 W/m2
14:13 74.3 °F 44.1 °F 30.10 in South 5.0 mph 14.0 mph 34% 0.00 in 809.00 W/m2
14:18 74.5 °F 42.7 °F 30.10 in Calm   13.0 mph 32% 0.00 in 802.00 W/m2
14:23 74.6 °F 45.2 °F 30.10 in SSW 8.0 mph 13.0 mph 35% 0.00 in 789.00 W/m2
14:28 74.7 °F 44.5 °F 30.10 in Calm   10.0 mph 34% 0.00 in 788.00 W/m2
14:33 74.8 °F 45.3 °F 30.10 in SW 1.0 mph 10.0 mph 35% 0.00 in 777.00 W/m2
14:39 74.9 °F 46.9 °F 30.10 in WSW 1.0 mph 13.0 mph 37% 0.00 in 752.00 W/m2
14:44 74.7 °F 45.3 °F 30.10 in SW 8.0 mph 13.0 mph 35% 0.00 in 745.00 W/m2
14:49 74.5 °F 43.5 °F 30.10 in SW 7.0 mph 11.0 mph 33% 0.00 in 740.00 W/m2
14:54 74.3 °F 43.4 °F 30.10 in SW 13.0 mph 14.0 mph 33% 0.00 in 728.00 W/m2
14:59 74.2 °F 43.3 °F 30.10 in SW 3.0 mph 17.0 mph 33% 0.00 in 714.00 W/m2
15:04 74.1 °F 43.2 °F 30.10 in SSW 10.0 mph 15.0 mph 33% 0.00 in 717.00 W/m2
15:09 74.0 °F 42.3 °F 30.10 in SW 6.0 mph 16.0 mph 32% 0.00 in 696.00 W/m2
15:14 73.9 °F 41.4 °F 30.10 in SW 1.0 mph 12.0 mph 31% 0.00 in 682.00 W/m2
15:19 73.8 °F 42.9 °F 30.10 in Calm   12.0 mph 33% 0.00 in 677.00 W/m2
15:24 73.7 °F 43.6 °F 30.10 in SW 7.0 mph 13.0 mph 34% 0.00 in 657.00 W/m2
15:29 73.6 °F 42.8 °F 30.10 in SSE 8.0 mph 17.0 mph 33% 0.00 in 656.00 W/m2
15:34 73.4 °F 41.0 °F 30.10 in SSW 9.0 mph 11.0 mph 31% 0.00 in 635.00 W/m2
15:39 73.3 °F 40.9 °F 30.10 in South 10.0 mph 15.0 mph 31% 0.00 in 635.00 W/m2
15:44 73.2 °F 43.2 °F 30.09 in SSW 6.0 mph 12.0 mph 34% 0.00 in 622.00 W/m2
15:49 73.0 °F 42.2 °F 30.09 in South 1.0 mph 13.0 mph 33% 0.00 in 613.00 W/m2
15:54 73.0 °F 41.4 °F 30.09 in SE 10.0 mph 16.0 mph 32% 0.00 in 592.00 W/m2
15:59 72.9 °F 42.1 °F 30.09 in SSW 5.0 mph 13.0 mph 33% 0.00 in 584.00 W/m2
16:04 72.8 °F 39.6 °F 30.09 in Calm   13.0 mph 30% 0.00 in 568.00 W/m2
16:09 72.8 °F 41.3 °F 30.09 in SSE 1.0 mph 6.0 mph 32% 0.00 in 555.00 W/m2
16:14 72.7 °F 42.0 °F 30.10 in SSW 5.0 mph 11.0 mph 33% 0.00 in 540.00 W/m2
16:19 72.7 °F 42.0 °F 30.09 in SW 5.0 mph 10.0 mph 33% 0.00 in 522.00 W/m2
16:24 72.6 °F 41.1 °F 30.09 in Calm   8.0 mph 32% 0.00 in 510.00 W/m2
16:29 72.4 °F 41.7 °F 30.09 in SSE 4.0 mph 12.0 mph 33% 0.00 in 497.00 W/m2
16:34 72.4 °F 40.9 °F 30.09 in SW 2.0 mph 7.0 mph 32% 0.00 in 480.00 W/m2
16:39 72.2 °F 41.5 °F 30.09 in Calm   2.0 mph 33% 0.00 in 466.00 W/m2
16:44 72.2 °F 42.3 °F 30.09 in West 2.0 mph 10.0 mph 34% 0.00 in 448.00 W/m2
16:49 72.2 °F 41.5 °F 30.09 in WSW 7.0 mph 13.0 mph 33% 0.00 in 429.00 W/m2
16:54 72.1 °F 40.7 °F 30.09 in SSW 1.0 mph 11.0 mph 32% 0.00 in 417.00 W/m2
16:59 71.9 °F 40.5 °F 30.09 in SW 1.0 mph 10.0 mph 32% 0.00 in 390.00 W/m2
17:04 71.8 °F 41.2 °F 30.09 in South 4.0 mph 11.0 mph 33% 0.00 in 373.00 W/m2
17:10 71.7 °F 41.1 °F 30.09 in SW 7.0 mph 11.0 mph 33% 0.00 in 359.00 W/m2
17:15 71.6 °F 41.0 °F 30.09 in SSW 3.0 mph 8.0 mph 33% 0.00 in 345.00 W/m2
17:20 71.5 °F 42.4 °F 30.08 in Calm   4.0 mph 35% 0.00 in 327.00 W/m2
17:25 71.4 °F 43.8 °F 30.09 in SSW 1.0 mph 7.0 mph 37% 0.00 in 306.00 W/m2
17:30 71.2 °F 42.9 °F 30.08 in SSW 2.0 mph 2.0 mph 36% 0.00 in 288.00 W/m2
17:35 71.1 °F 43.5 °F 30.08 in SW 2.0 mph 5.0 mph 37% 0.00 in 274.00 W/m2
17:40 70.9 °F 44.7 °F 30.08 in Calm   9.0 mph 39% 0.00 in 257.00 W/m2
17:45 70.8 °F 45.3 °F 30.08 in WSW 1.0 mph 9.0 mph 40% 0.00 in 243.00 W/m2
17:50 70.6 °F 45.8 °F 30.08 in WSW 2.0 mph 4.0 mph 41% 0.00 in 223.00 W/m2
17:55 70.5 °F 45.7 °F 30.08 in Calm   9.0 mph 41% 0.00 in 202.00 W/m2
18:00 70.3 °F 44.9 °F 30.08 in Calm   2.0 mph 40% 0.00 in 183.00 W/m2
18:05 70.2 °F 46.1 °F 30.08 in SW 2.0 mph 2.0 mph 42% 0.00 in 160.00 W/m2
18:10 70.0 °F 46.5 °F 30.08 in Calm   6.0 mph 43% 0.00 in 139.00 W/m2
18:15 69.7 °F 46.8 °F 30.08 in Calm   2.0 mph 44% 0.00 in 116.00 W/m2
18:20 69.4 °F 47.2 °F 30.08 in SSW 2.0 mph 3.0 mph 45% 0.00 in 97.00 W/m2
18:25 69.2 °F 47.6 °F 30.08 in Calm   2.0 mph 46% 0.00 in 77.00 W/m2
18:30 68.9 °F 47.9 °F 30.08 in Calm   3.0 mph 47% 0.00 in 60.00 W/m2
18:35 68.5 °F 47.5 °F 30.08 in Calm   1.0 mph 47% 0.00 in 46.00 W/m2
18:45 67.6 °F 47.8 °F 30.08 in Calm   2.0 mph 49% 0.00 in 25.00 W/m2
18:50 67.0 °F 48.3 °F 30.08 in Calm     51% 0.00 in 16.00 W/m2
18:55 66.4 °F 48.3 °F 30.08 in Calm     52% 0.00 in 12.00 W/m2
19:00 65.8 °F 47.7 °F 30.08 in Calm     52% 0.00 in 9.00 W/m2
19:05 65.4 °F 48.3 °F 30.08 in Calm     54% 0.00 in 7.00 W/m2
19:10 64.8 °F 48.3 °F 30.08 in Calm     55% 0.00 in 0.00 W/m2
19:15 64.2 °F 47.7 °F 30.08 in Calm     55% 0.00 in 0.00 W/m2
19:20 63.7 °F 48.2 °F 30.08 in Calm     57% 0.00 in 0.00 W/m2
19:30 62.7 °F 47.7 °F 30.08 in Calm     58% 0.00 in 0.00 W/m2
19:35 62.3 °F 47.8 °F 30.08 in Calm     59% 0.00 in 0.00 W/m2
19:40 61.9 °F 47.4 °F 30.08 in Calm     59% 0.00 in 0.00 W/m2
19:42 61.8 °F 47.3 °F 30.08 in Calm     59% 0.00 in 0.00 W/m2
19:47 61.5 °F 47.9 °F 30.08 in Calm     61% 0.00 in 0.00 W/m2
19:52 61.2 °F 47.7 °F 30.08 in Calm     61% 0.00 in 0.00 W/m2
19:57 61.0 °F 47.9 °F 30.08 in Calm     62% 0.00 in 0.00 W/m2
20:02 60.8 °F 47.7 °F 30.08 in Calm     62% 0.00 in 0.00 W/m2
20:07 60.7 °F 48.0 °F 30.08 in Calm     63% 0.00 in 0.00 W/m2
20:12 60.6 °F 48.0 °F 30.08 in Calm     63% 0.00 in 0.00 W/m2
20:17 60.4 °F 48.2 °F 30.08 in Calm     64% 0.00 in 0.00 W/m2
20:23 60.3 °F 48.5 °F 30.08 in Calm     65% 0.00 in 0.00 W/m2
20:28 60.2 °F 48.4 °F 30.08 in Calm     65% 0.00 in 0.00 W/m2
20:33 60.1 °F 48.7 °F 30.08 in Calm     66% 0.00 in 0.00 W/m2
20:38 60.1 °F 48.3 °F 30.09 in SSW 1.0 mph 1.0 mph 65% 0.00 in 0.00 W/m2
20:43 60.0 °F 48.6 °F 30.09 in SSW 1.0 mph 1.0 mph 66% 0.00 in 0.00 W/m2
20:53 59.9 °F 48.5 °F 30.09 in Calm   1.0 mph 66% 0.00 in 0.00 W/m2
20:58 59.8 °F 48.4 °F 30.09 in Calm   1.0 mph 66% 0.00 in 0.00 W/m2
21:08 59.6 °F 47.8 °F 30.09 in Calm   1.0 mph 65% 0.00 in 0.00 W/m2
21:13 59.5 °F 46.9 °F 30.09 in Calm   1.0 mph 63% 0.00 in 0.00 W/m2
21:24 59.3 °F 45.9 °F 30.10 in Calm   1.0 mph 61% 0.00 in 0.00 W/m2
21:29 59.3 °F 45.9 °F 30.10 in Calm   1.0 mph 61% 0.00 in 0.00 W/m2
21:34 59.2 °F 45.8 °F 30.10 in Calm   4.0 mph 61% 0.00 in 0.00 W/m2
21:39 59.1 °F 45.2 °F 30.10 in Calm   2.0 mph 60% 0.00 in 0.00 W/m2
21:44 59.0 °F 45.2 °F 30.10 in ESE 1.0 mph 5.0 mph 60% 0.00 in 0.00 W/m2
21:49 58.9 °F 44.6 °F 30.10 in Calm   5.0 mph 59% 0.00 in 0.00 W/m2
21:54 58.8 °F 45.0 °F 30.10 in Calm   5.0 mph 60% 0.00 in 0.00 W/m2
21:59 58.7 °F 44.4 °F 30.10 in Calm   7.0 mph 59% 0.00 in 0.00 W/m2
22:04 58.6 °F 44.3 °F 30.10 in ESE 2.0 mph 2.0 mph 59% 0.00 in 0.00 W/m2
22:09 58.4 °F 44.1 °F 30.11 in East 4.0 mph 5.0 mph 59% 0.00 in 0.00 W/m2
22:14 58.3 °F 44.0 °F 30.11 in East 1.0 mph 5.0 mph 59% 0.00 in 0.00 W/m2
22:19 58.2 °F 43.5 °F 30.11 in Calm   6.0 mph 58% 0.00 in 0.00 W/m2
22:24 58.1 °F 43.9 °F 30.11 in East 2.0 mph 6.0 mph 59% 0.00 in 0.00 W/m2
22:29 58.0 °F 43.3 °F 30.11 in Calm   7.0 mph 58% 0.00 in 0.00 W/m2
22:34 57.9 °F 43.7 °F 30.11 in ESE 6.0 mph 6.0 mph 59% 0.00 in 0.00 W/m2
22:39 57.8 °F 43.1 °F 30.11 in ESE 2.0 mph 6.0 mph 58% 0.00 in 0.00 W/m2
22:44 57.7 °F 43.0 °F 30.11 in ESE 2.0 mph 5.0 mph 58% 0.00 in 0.00 W/m2
22:49 57.7 °F 42.6 °F 30.11 in ESE 2.0 mph 6.0 mph 57% 0.00 in 0.00 W/m2
22:54 57.6 °F 43.0 °F 30.11 in Calm   5.0 mph 58% 0.00 in 0.00 W/m2
22:59 57.6 °F 43.0 °F 30.11 in ESE 2.0 mph 8.0 mph 58% 0.00 in 0.00 W/m2
23:04 57.5 °F 42.8 °F 30.11 in Calm   8.0 mph 58% 0.00 in 0.00 W/m2
23:09 57.4 °F 42.8 °F 30.11 in ESE 2.0 mph 6.0 mph 58% 0.00 in 0.00 W/m2
23:19 57.3 °F 42.7 °F 30.11 in SE 9.0 mph 12.0 mph 58% 0.00 in 0.00 W/m2
23:24 57.2 °F 42.1 °F 30.11 in ESE 1.0 mph 4.0 mph 57% 0.00 in 0.00 W/m2
23:29 57.1 °F 42.0 °F 30.11 in ESE 4.0 mph 12.0 mph 57% 0.00 in 0.00 W/m2
23:34 57.0 °F 42.4 °F 30.11 in ESE 1.0 mph 5.0 mph 58% 0.00 in 0.00 W/m2
23:39 56.9 °F 42.3 °F 30.10 in Calm   7.0 mph 58% 0.00 in 0.00 W/m2
23:44 56.8 °F 41.8 °F 30.10 in ESE 4.0 mph 4.0 mph 57% 0.00 in 0.00 W/m2
23:49 56.7 °F 42.1 °F 30.11 in East 4.0 mph 11.0 mph 58% 0.00 in 0.00 W/m2
23:54 56.6 °F 41.6 °F 30.11 in Calm   13.0 mph 57% 0.00 in 0.00 W/m2
23:59 56.6 °F 41.6 °F 30.11 in East 2.0 mph 11.0 mph 57% 0.00 in 0.00 W/m2
Foresthill Weather
 WU-history PHP script courtesy of   Juneau County Weather.
powered by Cumulus v1.9.3 (1059)
Ambient Weather VWS v14.00
Top Contact Website Map Copyright © 2007 - 2018 Foresthillweather.com Never base important decisions on this or any weather information obtained from the Internet